Maryland METAR Reports


Distance/Direction noted is from Ellicott City, MD as the crow flies

KCBE - Cumberland - 118 miles WNW
Updated: Wed, 04/16/2014 9:35 PM
Clear
Clear
 Wind from calm
Wind: Calm
Temperature: 43°F
Dew Point: 14°F
Humidity: 31%
Barometer: 30.50 inHg
Clouds: Clear
Visibility: 10 miles
2014/04/17 01:35 KCBE 170135Z AUTO 00000KT 10SM CLR 06/M10 A3050 RMK AO1
KHGR - Hagerstown - 57 miles NW
Updated: Wed, 04/16/2014 8:53 PM
Clear
Clear
 Wind from E
Wind: E 5 mph
Temperature: 41°F
Wind Chill: 38°F
Dew Point: 18°F
Humidity: 39%
Barometer: 30.47 inHg
Clouds: Clear
Visibility: 10 miles
2014/04/17 00:53 KHGR 170053Z 08004KT 10SM CLR 05/M08 A3047 RMK AO2 SLP336 T00501083
 
KFDK - Frederick - 34 miles NW
Updated: Wed, 04/16/2014 9:30 PM
Clear
Clear
 Wind from calm
Wind: Calm
Temperature: 37°F
Dew Point: 28°F
Humidity: 70%
Barometer: 30.54 inHg
Clouds: Clear
Visibility: 10 miles
2014/04/17 01:30 KFDK 170130Z AUTO 00000KT 10SM CLR 03/M02 A3054 RMK AO2
KGAI - Gaithersburg - 26 miles SW
Updated: Wed, 04/16/2014 9:35 PM
Clear
Clear
 Wind from NE
Wind: NE 5 mph
Temperature: 39°F
Wind Chill: 35°F
Dew Point: 19°F
Humidity: 45%
Barometer: 30.53 inHg
Clouds: Clear
Visibility: 10 miles
2014/04/17 01:35 KGAI 170135Z AUTO 04004KT 10SM CLR 04/M07 A3053 RMK AO1
 
KBWI - BWI Airport - 15 miles SE
Updated: Wed, 04/16/2014 8:54 PM
Few Clouds
Few Clouds
 Wind from NNE
Wind: NNE 5 mph
Temperature: 43°F
Wind Chill: 40°F
Dew Point: 19°F
Humidity: 39%
Barometer: 30.49 inHg
Clouds: Few Clouds
Visibility: 10 miles
Cloud Details: Few Clouds 25000 ft
2014/04/17 00:54 KBWI 170054Z 02004KT 10SM FEW250 06/M07 A3049 RMK AO2 SLP325 T00561067
KNAK - Annapolis - 32 miles SSE
Updated: Wed, 04/16/2014 8:54 PM
Clear
Clear
 Wind from NE
Wind: NE 3 mph
Temperature: 45°F
Dew Point: 23°F
Humidity: 42%
Barometer: 30.50 inHg
Clouds: Clear
Visibility: 10 miles
2014/04/17 00:54 KNAK 170054Z AUTO 05003KT 10SM CLR 07/M05 A3050 RMK AO2 SLP329 T00721050
 
KESN - Easton - 63 miles SE
Updated: Wed, 04/16/2014 9:45 PM
Clear
Clear
 Wind from calm
Wind: Calm
Temperature: 41°F
Dew Point: 27°F
Humidity: 57%
Barometer: 30.55 inHg
Clouds: Clear
Visibility: 10 miles
2014/04/17 01:45 KESN 170145Z 00000KT 10SM SKC 05/M03 A3055
KSBY - Salisbury - 112 miles SE
Updated: Wed, 04/16/2014 8:54 PM
Clear
Clear
 Wind from E
Wind: E 6 mph
Temperature: 43°F
Wind Chill: 39°F
Dew Point: 28°F
Humidity: 57%
Barometer: 30.49 inHg
Clouds: Clear
Visibility: 10 miles
2014/04/17 00:54 KSBY 170054Z 09005KT 10SM CLR 06/M02 A3049 RMK AO2 SLP326 T00561022